sensor_id;sensor_type;location;lat;lon;timestamp;temperature;humidity
10722;DHT22;5412;59.450;18.124;2022-08-19T00:01:26;20.80;99.90
10722;DHT22;5412;59.450;18.124;2022-08-19T00:03:55;20.90;99.90
10722;DHT22;5412;59.450;18.124;2022-08-19T00:06:20;20.80;99.90
10722;DHT22;5412;59.450;18.124;2022-08-19T00:08:46;20.80;99.90
10722;DHT22;5412;59.450;18.124;2022-08-19T00:11:13;20.80;99.90
10722;DHT22;5412;59.450;18.124;2022-08-19T00:13:39;20.80;99.90
10722;DHT22;5412;59.450;18.124;2022-08-19T00:16:06;20.70;99.90
10722;DHT22;5412;59.450;18.124;2022-08-19T00:18:33;20.80;99.90
10722;DHT22;5412;59.450;18.124;2022-08-19T00:20:59;20.80;99.90
10722;DHT22;5412;59.450;18.124;2022-08-19T00:23:26;20.80;99.90
10722;DHT22;5412;59.450;18.124;2022-08-19T00:25:51;20.80;99.90
10722;DHT22;5412;59.450;18.124;2022-08-19T00:28:17;20.80;99.90
10722;DHT22;5412;59.450;18.124;2022-08-19T00:30:43;20.80;99.90
10722;DHT22;5412;59.450;18.124;2022-08-19T00:33:09;20.90;99.90
10722;DHT22;5412;59.450;18.124;2022-08-19T00:35:35;20.90;99.90
10722;DHT22;5412;59.450;18.124;2022-08-19T00:38:01;21.00;99.90
10722;DHT22;5412;59.450;18.124;2022-08-19T00:40:26;21.00;99.90
10722;DHT22;5412;59.450;18.124;2022-08-19T00:42:52;21.00;99.90
10722;DHT22;5412;59.450;18.124;2022-08-19T00:45:23;21.00;99.90
10722;DHT22;5412;59.450;18.124;2022-08-19T00:47:49;21.10;99.90
10722;DHT22;5412;59.450;18.124;2022-08-19T00:50:17;21.10;99.90
10722;DHT22;5412;59.450;18.124;2022-08-19T00:52:46;21.10;99.90
10722;DHT22;5412;59.450;18.124;2022-08-19T00:55:19;21.20;99.90
10722;DHT22;5412;59.450;18.124;2022-08-19T00:57:53;21.30;99.90
10722;DHT22;5412;59.450;18.124;2022-08-19T01:00:20;21.40;99.90
10722;DHT22;5412;59.450;18.124;2022-08-19T01:02:46;21.30;99.90
10722;DHT22;5412;59.450;18.124;2022-08-19T01:05:20;21.40;99.90
10722;DHT22;5412;59.450;18.124;2022-08-19T01:07:48;21.40;99.90
10722;DHT22;5412;59.450;18.124;2022-08-19T01:10:19;21.40;99.90
10722;DHT22;5412;59.450;18.124;2022-08-19T01:12:49;21.40;99.90
10722;DHT22;5412;59.450;18.124;2022-08-19T01:15:19;21.50;99.90
10722;DHT22;5412;59.450;18.124;2022-08-19T01:17:46;21.50;99.90
10722;DHT22;5412;59.450;18.124;2022-08-19T01:20:14;21.50;99.90
10722;DHT22;5412;59.450;18.124;2022-08-19T01:22:45;21.50;99.90
10722;DHT22;5412;59.450;18.124;2022-08-19T01:25:13;21.60;99.90
10722;DHT22;5412;59.450;18.124;2022-08-19T01:27:45;21.50;99.90
10722;DHT22;5412;59.450;18.124;2022-08-19T01:30:19;21.50;99.90
10722;DHT22;5412;59.450;18.124;2022-08-19T01:32:46;21.50;99.90
10722;DHT22;5412;59.450;18.124;2022-08-19T01:35:12;21.60;99.90
10722;DHT22;5412;59.450;18.124;2022-08-19T01:38:04;21.50;99.90
10722;DHT22;5412;59.450;18.124;2022-08-19T01:40:31;21.50;99.90
10722;DHT22;5412;59.450;18.124;2022-08-19T01:42:59;21.60;99.90
10722;DHT22;5412;59.450;18.124;2022-08-19T01:45:26;21.60;99.90
10722;DHT22;5412;59.450;18.124;2022-08-19T01:47:54;21.60;99.90
10722;DHT22;5412;59.450;18.124;2022-08-19T01:50:21;21.70;99.90
10722;DHT22;5412;59.450;18.124;2022-08-19T01:52:46;21.60;99.90
10722;DHT22;5412;59.450;18.124;2022-08-19T01:55:15;21.60;99.90
10722;DHT22;5412;59.450;18.124;2022-08-19T01:57:45;21.60;99.90
10722;DHT22;5412;59.450;18.124;2022-08-19T02:00:14;21.60;99.90
10722;DHT22;5412;59.450;18.124;2022-08-19T02:02:41;21.60;99.90
10722;DHT22;5412;59.450;18.124;2022-08-19T02:05:07;21.60;99.90
10722;DHT22;5412;59.450;18.124;2022-08-19T02:07:34;21.60;99.90
10722;DHT22;5412;59.450;18.124;2022-08-19T02:10:08;21.60;99.90
10722;DHT22;5412;59.450;18.124;2022-08-19T02:12:35;21.70;99.90
10722;DHT22;5412;59.450;18.124;2022-08-19T02:15:01;21.60;99.90
10722;DHT22;5412;59.450;18.124;2022-08-19T02:17:28;21.60;99.90
10722;DHT22;5412;59.450;18.124;2022-08-19T02:19:57;21.70;99.90
10722;DHT22;5412;59.450;18.124;2022-08-19T02:22:23;21.70;99.90
10722;DHT22;5412;59.450;18.124;2022-08-19T02:24:51;21.60;99.90
10722;DHT22;5412;59.450;18.124;2022-08-19T02:27:16;21.80;99.90
10722;DHT22;5412;59.450;18.124;2022-08-19T02:29:42;21.60;99.90
10722;DHT22;5412;59.450;18.124;2022-08-19T02:32:08;21.60;99.90
10722;DHT22;5412;59.450;18.124;2022-08-19T02:34:34;21.60;99.90
10722;DHT22;5412;59.450;18.124;2022-08-19T02:37:00;21.60;99.90
10722;DHT22;5412;59.450;18.124;2022-08-19T02:39:25;21.60;99.90
10722;DHT22;5412;59.450;18.124;2022-08-19T02:41:52;21.70;99.90
10722;DHT22;5412;59.450;18.124;2022-08-19T02:44:18;21.70;99.90
10722;DHT22;5412;59.450;18.124;2022-08-19T02:46:46;21.60;99.90
10722;DHT22;5412;59.450;18.124;2022-08-19T02:49:12;21.60;99.90
10722;DHT22;5412;59.450;18.124;2022-08-19T02:51:43;21.70;99.90
10722;DHT22;5412;59.450;18.124;2022-08-19T02:54:11;21.70;99.90
10722;DHT22;5412;59.450;18.124;2022-08-19T02:56:39;21.70;99.90
10722;DHT22;5412;59.450;18.124;2022-08-19T02:59:06;21.80;99.90
10722;DHT22;5412;59.450;18.124;2022-08-19T03:01:34;21.70;99.90
10722;DHT22;5412;59.450;18.124;2022-08-19T03:04:03;21.70;99.90
10722;DHT22;5412;59.450;18.124;2022-08-19T03:06:30;21.80;99.90
10722;DHT22;5412;59.450;18.124;2022-08-19T03:08:56;21.80;99.90
10722;DHT22;5412;59.450;18.124;2022-08-19T03:11:26;21.80;99.90
10722;DHT22;5412;59.450;18.124;2022-08-19T03:13:53;21.80;99.90
10722;DHT22;5412;59.450;18.124;2022-08-19T03:16:21;21.80;99.90
10722;DHT22;5412;59.450;18.124;2022-08-19T03:18:47;21.80;99.90
10722;DHT22;5412;59.450;18.124;2022-08-19T03:21:18;21.70;99.90
10722;DHT22;5412;59.450;18.124;2022-08-19T03:23:44;21.70;99.90
10722;DHT22;5412;59.450;18.124;2022-08-19T03:26:09;21.80;99.90
10722;DHT22;5412;59.450;18.124;2022-08-19T03:28:35;21.70;99.90
10722;DHT22;5412;59.450;18.124;2022-08-19T03:31:16;21.70;99.90
10722;DHT22;5412;59.450;18.124;2022-08-19T03:33:42;21.80;99.90
10722;DHT22;5412;59.450;18.124;2022-08-19T03:36:09;21.80;99.90
10722;DHT22;5412;59.450;18.124;2022-08-19T03:38:37;21.80;99.90
10722;DHT22;5412;59.450;18.124;2022-08-19T03:41:15;21.80;99.90
10722;DHT22;5412;59.450;18.124;2022-08-19T03:43:41;21.80;99.90
10722;DHT22;5412;59.450;18.124;2022-08-19T03:46:13;21.80;99.90
10722;DHT22;5412;59.450;18.124;2022-08-19T03:48:41;21.80;99.90
10722;DHT22;5412;59.450;18.124;2022-08-19T03:51:08;21.80;99.90
10722;DHT22;5412;59.450;18.124;2022-08-19T03:53:40;21.80;99.90
10722;DHT22;5412;59.450;18.124;2022-08-19T03:56:08;21.80;99.90
10722;DHT22;5412;59.450;18.124;2022-08-19T03:58:34;21.90;99.90
10722;DHT22;5412;59.450;18.124;2022-08-19T04:00:59;21.90;99.90
10722;DHT22;5412;59.450;18.124;2022-08-19T04:03:25;21.80;99.90
10722;DHT22;5412;59.450;18.124;2022-08-19T04:05:52;21.90;99.90
10722;DHT22;5412;59.450;18.124;2022-08-19T04:08:19;21.90;99.90
10722;DHT22;5412;59.450;18.124;2022-08-19T04:10:47;21.90;99.90
10722;DHT22;5412;59.450;18.124;2022-08-19T04:13:13;21.90;99.90
10722;DHT22;5412;59.450;18.124;2022-08-19T04:15:41;22.00;99.90
10722;DHT22;5412;59.450;18.124;2022-08-19T04:18:08;22.00;99.90
10722;DHT22;5412;59.450;18.124;2022-08-19T04:20:46;22.00;99.90
10722;DHT22;5412;59.450;18.124;2022-08-19T04:23:14;22.00;99.90
10722;DHT22;5412;59.450;18.124;2022-08-19T04:25:43;21.90;99.90
10722;DHT22;5412;59.450;18.124;2022-08-19T04:28:11;21.90;99.90
10722;DHT22;5412;59.450;18.124;2022-08-19T04:30:38;22.00;99.90
10722;DHT22;5412;59.450;18.124;2022-08-19T04:33:04;21.90;99.90
10722;DHT22;5412;59.450;18.124;2022-08-19T04:35:38;22.00;99.90
10722;DHT22;5412;59.450;18.124;2022-08-19T04:38:05;22.00;99.90
10722;DHT22;5412;59.450;18.124;2022-08-19T04:40:31;22.00;99.90
10722;DHT22;5412;59.450;18.124;2022-08-19T04:43:15;22.00;99.90
10722;DHT22;5412;59.450;18.124;2022-08-19T04:45:43;22.00;99.90
10722;DHT22;5412;59.450;18.124;2022-08-19T04:48:09;22.00;99.90
10722;DHT22;5412;59.450;18.124;2022-08-19T04:50:35;22.10;99.90
10722;DHT22;5412;59.450;18.124;2022-08-19T04:53:01;22.10;99.90
10722;DHT22;5412;59.450;18.124;2022-08-19T04:55:26;22.10;99.90
10722;DHT22;5412;59.450;18.124;2022-08-19T04:57:52;22.10;99.90
10722;DHT22;5412;59.450;18.124;2022-08-19T05:00:18;22.10;99.90
10722;DHT22;5412;59.450;18.124;2022-08-19T05:02:44;22.10;99.90
10722;DHT22;5412;59.450;18.124;2022-08-19T05:05:09;22.10;99.90
10722;DHT22;5412;59.450;18.124;2022-08-19T05:07:35;22.00;99.90
10722;DHT22;5412;59.450;18.124;2022-08-19T05:10:02;22.10;99.90
10722;DHT22;5412;59.450;18.124;2022-08-19T05:12:28;22.10;99.90
10722;DHT22;5412;59.450;18.124;2022-08-19T05:14:54;22.10;99.90
10722;DHT22;5412;59.450;18.124;2022-08-19T05:17:21;22.10;99.90
10722;DHT22;5412;59.450;18.124;2022-08-19T05:19:47;22.10;99.90
10722;DHT22;5412;59.450;18.124;2022-08-19T05:22:31;22.10;99.90
10722;DHT22;5412;59.450;18.124;2022-08-19T05:25:10;22.20;99.90
10722;DHT22;5412;59.450;18.124;2022-08-19T05:27:39;22.20;99.90
10722;DHT22;5412;59.450;18.124;2022-08-19T05:30:05;22.30;99.90
10722;DHT22;5412;59.450;18.124;2022-08-19T05:32:31;22.30;99.90
10722;DHT22;5412;59.450;18.124;2022-08-19T05:34:57;22.30;99.90
10722;DHT22;5412;59.450;18.124;2022-08-19T05:37:23;22.30;99.90
10722;DHT22;5412;59.450;18.124;2022-08-19T05:39:48;22.30;99.90
10722;DHT22;5412;59.450;18.124;2022-08-19T05:42:14;22.30;99.90
10722;DHT22;5412;59.450;18.124;2022-08-19T05:44:42;22.40;99.90
10722;DHT22;5412;59.450;18.124;2022-08-19T05:47:10;22.40;99.90
10722;DHT22;5412;59.450;18.124;2022-08-19T05:49:37;22.50;99.90
10722;DHT22;5412;59.450;18.124;2022-08-19T05:52:08;22.40;99.90
10722;DHT22;5412;59.450;18.124;2022-08-19T05:54:34;22.50;99.90
10722;DHT22;5412;59.450;18.124;2022-08-19T05:57:01;22.60;99.90
10722;DHT22;5412;59.450;18.124;2022-08-19T05:59:27;22.70;99.90
10722;DHT22;5412;59.450;18.124;2022-08-19T06:01:53;22.70;99.90
10722;DHT22;5412;59.450;18.124;2022-08-19T06:04:22;22.80;99.90
10722;DHT22;5412;59.450;18.124;2022-08-19T06:06:50;22.80;99.90
10722;DHT22;5412;59.450;18.124;2022-08-19T06:09:17;22.90;99.90
10722;DHT22;5412;59.450;18.124;2022-08-19T06:11:46;22.90;99.90
10722;DHT22;5412;59.450;18.124;2022-08-19T06:14:16;22.90;99.90
10722;DHT22;5412;59.450;18.124;2022-08-19T06:16:44;23.00;99.90
10722;DHT22;5412;59.450;18.124;2022-08-19T06:19:16;23.00;99.90
10722;DHT22;5412;59.450;18.124;2022-08-19T06:21:44;23.10;99.90
10722;DHT22;5412;59.450;18.124;2022-08-19T06:24:12;23.20;99.90
10722;DHT22;5412;59.450;18.124;2022-08-19T06:26:40;23.30;99.90
10722;DHT22;5412;59.450;18.124;2022-08-19T06:29:07;23.30;99.90
10722;DHT22;5412;59.450;18.124;2022-08-19T06:31:35;23.40;99.90
10722;DHT22;5412;59.450;18.124;2022-08-19T06:34:03;23.50;99.90
10722;DHT22;5412;59.450;18.124;2022-08-19T06:36:33;23.60;99.90
10722;DHT22;5412;59.450;18.124;2022-08-19T06:39:01;23.50;99.90
10722;DHT22;5412;59.450;18.124;2022-08-19T06:41:29;23.70;99.90
10722;DHT22;5412;59.450;18.124;2022-08-19T06:43:55;23.70;99.90
10722;DHT22;5412;59.450;18.124;2022-08-19T06:46:22;23.80;99.90
10722;DHT22;5412;59.450;18.124;2022-08-19T06:48:48;23.80;99.90
10722;DHT22;5412;59.450;18.124;2022-08-19T06:51:16;23.90;99.90
10722;DHT22;5412;59.450;18.124;2022-08-19T06:53:45;24.00;99.90
10722;DHT22;5412;59.450;18.124;2022-08-19T06:56:13;24.10;99.90
10722;DHT22;5412;59.450;18.124;2022-08-19T06:58:39;24.20;99.90
10722;DHT22;5412;59.450;18.124;2022-08-19T07:01:05;24.30;99.90
10722;DHT22;5412;59.450;18.124;2022-08-19T07:03:33;24.40;99.90
10722;DHT22;5412;59.450;18.124;2022-08-19T07:06:07;24.40;99.90
10722;DHT22;5412;59.450;18.124;2022-08-19T07:08:34;24.60;99.90
10722;DHT22;5412;59.450;18.124;2022-08-19T07:11:00;24.60;99.90
10722;DHT22;5412;59.450;18.124;2022-08-19T07:13:26;24.70;99.90
10722;DHT22;5412;59.450;18.124;2022-08-19T07:15:52;24.80;99.90
10722;DHT22;5412;59.450;18.124;2022-08-19T07:18:19;24.90;99.90
10722;DHT22;5412;59.450;18.124;2022-08-19T07:20:47;25.00;99.90
10722;DHT22;5412;59.450;18.124;2022-08-19T07:23:13;25.00;99.90
10722;DHT22;5412;59.450;18.124;2022-08-19T07:25:39;25.00;99.90
10722;DHT22;5412;59.450;18.124;2022-08-19T07:28:05;25.10;99.90
10722;DHT22;5412;59.450;18.124;2022-08-19T07:30:37;25.20;99.90
10722;DHT22;5412;59.450;18.124;2022-08-19T07:33:03;25.30;99.90
10722;DHT22;5412;59.450;18.124;2022-08-19T07:35:29;25.40;99.90
10722;DHT22;5412;59.450;18.124;2022-08-19T07:37:57;25.40;99.90
10722;DHT22;5412;59.450;18.124;2022-08-19T07:40:23;25.50;99.90
10722;DHT22;5412;59.450;18.124;2022-08-19T07:42:49;25.50;99.90
10722;DHT22;5412;59.450;18.124;2022-08-19T07:45:15;25.70;99.90
10722;DHT22;5412;59.450;18.124;2022-08-19T07:47:41;25.80;99.90
10722;DHT22;5412;59.450;18.124;2022-08-19T07:50:10;25.90;99.90
10722;DHT22;5412;59.450;18.124;2022-08-19T07:52:37;26.00;99.90
10722;DHT22;5412;59.450;18.124;2022-08-19T07:55:09;26.10;99.90
10722;DHT22;5412;59.450;18.124;2022-08-19T07:57:35;26.20;99.90
10722;DHT22;5412;59.450;18.124;2022-08-19T08:00:03;26.20;99.90
10722;DHT22;5412;59.450;18.124;2022-08-19T08:02:28;26.20;99.90
10722;DHT22;5412;59.450;18.124;2022-08-19T08:04:54;26.40;99.90
10722;DHT22;5412;59.450;18.124;2022-08-19T08:07:38;26.40;99.90
10722;DHT22;5412;59.450;18.124;2022-08-19T08:10:22;26.50;99.90
10722;DHT22;5412;59.450;18.124;2022-08-19T08:12:48;26.60;99.90
10722;DHT22;5412;59.450;18.124;2022-08-19T08:15:15;26.60;99.90
10722;DHT22;5412;59.450;18.124;2022-08-19T08:17:44;26.70;99.90
10722;DHT22;5412;59.450;18.124;2022-08-19T08:20:12;26.80;99.90
10722;DHT22;5412;59.450;18.124;2022-08-19T08:22:43;26.80;99.90
10722;DHT22;5412;59.450;18.124;2022-08-19T08:25:27;26.90;99.90
10722;DHT22;5412;59.450;18.124;2022-08-19T08:27:53;27.00;99.90
10722;DHT22;5412;59.450;18.124;2022-08-19T08:30:22;27.10;99.90
10722;DHT22;5412;59.450;18.124;2022-08-19T08:32:49;27.10;99.90
10722;DHT22;5412;59.450;18.124;2022-08-19T08:35:19;27.10;99.90
10722;DHT22;5412;59.450;18.124;2022-08-19T08:37:47;27.20;99.90
10722;DHT22;5412;59.450;18.124;2022-08-19T08:40:33;27.30;99.90
10722;DHT22;5412;59.450;18.124;2022-08-19T08:43:28;27.40;99.90
10722;DHT22;5412;59.450;18.124;2022-08-19T08:46:13;27.50;99.90
10722;DHT22;5412;59.450;18.124;2022-08-19T08:49:05;27.60;99.90
10722;DHT22;5412;59.450;18.124;2022-08-19T08:51:36;27.60;99.90
10722;DHT22;5412;59.450;18.124;2022-08-19T08:54:06;27.70;99.90
10722;DHT22;5412;59.450;18.124;2022-08-19T08:56:32;27.70;99.90
10722;DHT22;5412;59.450;18.124;2022-08-19T08:59:03;27.80;99.90
10722;DHT22;5412;59.450;18.124;2022-08-19T09:01:32;27.90;99.90
10722;DHT22;5412;59.450;18.124;2022-08-19T09:03:57;27.80;99.90
10722;DHT22;5412;59.450;18.124;2022-08-19T09:06:27;27.90;99.90
10722;DHT22;5412;59.450;18.124;2022-08-19T09:09:16;28.10;99.90
10722;DHT22;5412;59.450;18.124;2022-08-19T09:15:10;28.20;99.90
10722;DHT22;5412;59.450;18.124;2022-08-19T09:17:29;28.20;99.90
10722;DHT22;5412;59.450;18.124;2022-08-19T09:22:35;28.30;99.90
10722;DHT22;5412;59.450;18.124;2022-08-19T09:25:01;28.40;99.90
10722;DHT22;5412;59.450;18.124;2022-08-19T09:27:28;28.40;99.90
10722;DHT22;5412;59.450;18.124;2022-08-19T09:29:54;28.40;99.90
10722;DHT22;5412;59.450;18.124;2022-08-19T09:32:21;28.50;99.90
10722;DHT22;5412;59.450;18.124;2022-08-19T09:34:47;28.50;99.90
10722;DHT22;5412;59.450;18.124;2022-08-19T09:37:13;28.40;99.90
10722;DHT22;5412;59.450;18.124;2022-08-19T09:39:39;28.40;99.90
10722;DHT22;5412;59.450;18.124;2022-08-19T09:42:07;28.50;99.90
10722;DHT22;5412;59.450;18.124;2022-08-19T09:44:38;28.50;99.90
10722;DHT22;5412;59.450;18.124;2022-08-19T09:47:03;28.60;99.90
10722;DHT22;5412;59.450;18.124;2022-08-19T09:49:30;28.60;99.90
10722;DHT22;5412;59.450;18.124;2022-08-19T09:51:56;28.60;99.90
10722;DHT22;5412;59.450;18.124;2022-08-19T09:54:22;28.60;99.90
10722;DHT22;5412;59.450;18.124;2022-08-19T09:56:48;28.60;99.90
10722;DHT22;5412;59.450;18.124;2022-08-19T09:59:14;28.70;99.90
10722;DHT22;5412;59.450;18.124;2022-08-19T10:01:40;28.70;99.90
10722;DHT22;5412;59.450;18.124;2022-08-19T10:04:05;28.80;99.90
10722;DHT22;5412;59.450;18.124;2022-08-19T10:06:36;28.80;99.90
10722;DHT22;5412;59.450;18.124;2022-08-19T10:09:03;28.80;99.90
10722;DHT22;5412;59.450;18.124;2022-08-19T10:11:32;28.80;99.90
10722;DHT22;5412;59.450;18.124;2022-08-19T10:13:58;28.90;99.90
10722;DHT22;5412;59.450;18.124;2022-08-19T10:16:25;28.90;99.90
10722;DHT22;5412;59.450;18.124;2022-08-19T10:18:51;29.00;99.90
10722;DHT22;5412;59.450;18.124;2022-08-19T10:21:20;29.00;99.90
10722;DHT22;5412;59.450;18.124;2022-08-19T10:23:48;29.00;99.90
10722;DHT22;5412;59.450;18.124;2022-08-19T10:26:18;29.00;99.90
10722;DHT22;5412;59.450;18.124;2022-08-19T10:28:44;29.10;99.90
10722;DHT22;5412;59.450;18.124;2022-08-19T10:31:12;29.20;99.90
10722;DHT22;5412;59.450;18.124;2022-08-19T10:33:39;29.20;99.90
10722;DHT22;5412;59.450;18.124;2022-08-19T10:36:11;29.30;99.90
10722;DHT22;5412;59.450;18.124;2022-08-19T10:38:37;29.40;99.90
10722;DHT22;5412;59.450;18.124;2022-08-19T10:41:11;29.40;99.90
10722;DHT22;5412;59.450;18.124;2022-08-19T10:43:37;29.40;99.90
10722;DHT22;5412;59.450;18.124;2022-08-19T10:46:04;29.50;99.90
10722;DHT22;5412;59.450;18.124;2022-08-19T10:48:31;29.40;99.90
10722;DHT22;5412;59.450;18.124;2022-08-19T10:50:57;29.50;99.90
10722;DHT22;5412;59.450;18.124;2022-08-19T10:53:41;29.50;99.90
10722;DHT22;5412;59.450;18.124;2022-08-19T10:56:07;29.40;99.90
10722;DHT22;5412;59.450;18.124;2022-08-19T10:58:51;29.50;99.90
10722;DHT22;5412;59.450;18.124;2022-08-19T11:01:16;29.50;99.90
10722;DHT22;5412;59.450;18.124;2022-08-19T11:03:42;29.60;99.90
10722;DHT22;5412;59.450;18.124;2022-08-19T11:06:08;29.60;99.90
10722;DHT22;5412;59.450;18.124;2022-08-19T11:08:35;29.60;99.90
10722;DHT22;5412;59.450;18.124;2022-08-19T11:11:03;29.70;99.90
10722;DHT22;5412;59.450;18.124;2022-08-19T11:13:35;29.80;99.90
10722;DHT22;5412;59.450;18.124;2022-08-19T11:16:07;29.80;99.90
10722;DHT22;5412;59.450;18.124;2022-08-19T11:18:38;29.90;99.90
10722;DHT22;5412;59.450;18.124;2022-08-19T11:21:10;30.00;99.90
10722;DHT22;5412;59.450;18.124;2022-08-19T11:23:36;30.00;99.90
10722;DHT22;5412;59.450;18.124;2022-08-19T11:26:01;30.00;99.90
10722;DHT22;5412;59.450;18.124;2022-08-19T11:28:27;30.00;99.90
10722;DHT22;5412;59.450;18.124;2022-08-19T11:30:53;30.10;99.90
10722;DHT22;5412;59.450;18.124;2022-08-19T11:33:19;30.10;99.90
10722;DHT22;5412;59.450;18.124;2022-08-19T11:35:44;30.10;99.90
10722;DHT22;5412;59.450;18.124;2022-08-19T11:38:10;30.10;99.90
10722;DHT22;5412;59.450;18.124;2022-08-19T11:40:36;30.10;99.90
10722;DHT22;5412;59.450;18.124;2022-08-19T11:43:03;30.20;99.90
10722;DHT22;5412;59.450;18.124;2022-08-19T11:45:28;30.20;99.90
10722;DHT22;5412;59.450;18.124;2022-08-19T11:47:55;30.10;99.90
10722;DHT22;5412;59.450;18.124;2022-08-19T11:50:21;30.00;99.90
10722;DHT22;5412;59.450;18.124;2022-08-19T11:52:48;30.00;99.90
10722;DHT22;5412;59.450;18.124;2022-08-19T11:55:15;30.10;99.90
10722;DHT22;5412;59.450;18.124;2022-08-19T11:57:41;30.10;99.90
10722;DHT22;5412;59.450;18.124;2022-08-19T12:00:08;30.00;99.90
10722;DHT22;5412;59.450;18.124;2022-08-19T12:02:36;30.10;99.90
10722;DHT22;5412;59.450;18.124;2022-08-19T12:05:02;30.10;99.90
10722;DHT22;5412;59.450;18.124;2022-08-19T12:07:28;30.20;99.90
10722;DHT22;5412;59.450;18.124;2022-08-19T12:09:56;30.20;99.90
10722;DHT22;5412;59.450;18.124;2022-08-19T12:12:22;30.30;99.90
10722;DHT22;5412;59.450;18.124;2022-08-19T12:14:50;30.20;99.90
10722;DHT22;5412;59.450;18.124;2022-08-19T12:17:22;30.30;99.90
10722;DHT22;5412;59.450;18.124;2022-08-19T12:19:48;30.30;99.90
10722;DHT22;5412;59.450;18.124;2022-08-19T12:22:13;30.30;99.90
10722;DHT22;5412;59.450;18.124;2022-08-19T12:24:39;30.30;99.90
10722;DHT22;5412;59.450;18.124;2022-08-19T12:27:05;30.30;99.90
10722;DHT22;5412;59.450;18.124;2022-08-19T12:29:30;30.40;99.90
10722;DHT22;5412;59.450;18.124;2022-08-19T12:31:58;30.60;99.90
10722;DHT22;5412;59.450;18.124;2022-08-19T12:34:28;30.70;99.90
10722;DHT22;5412;59.450;18.124;2022-08-19T12:36:57;30.80;99.90
10722;DHT22;5412;59.450;18.124;2022-08-19T12:39:23;30.80;99.90
10722;DHT22;5412;59.450;18.124;2022-08-19T12:41:49;30.90;99.90
10722;DHT22;5412;59.450;18.124;2022-08-19T12:44:15;31.10;99.90
10722;DHT22;5412;59.450;18.124;2022-08-19T12:46:40;31.10;99.90
10722;DHT22;5412;59.450;18.124;2022-08-19T12:49:06;31.20;99.90
10722;DHT22;5412;59.450;18.124;2022-08-19T12:51:32;31.20;99.90
10722;DHT22;5412;59.450;18.124;2022-08-19T12:53:57;31.50;99.90
10722;DHT22;5412;59.450;18.124;2022-08-19T12:56:23;31.70;99.90
10722;DHT22;5412;59.450;18.124;2022-08-19T12:58:48;32.00;99.90
10722;DHT22;5412;59.450;18.124;2022-08-19T13:01:15;32.30;99.90
10722;DHT22;5412;59.450;18.124;2022-08-19T13:03:42;32.30;99.90
10722;DHT22;5412;59.450;18.124;2022-08-19T13:06:09;32.50;99.90
10722;DHT22;5412;59.450;18.124;2022-08-19T13:08:34;32.70;99.90
10722;DHT22;5412;59.450;18.124;2022-08-19T13:11:11;32.90;99.90
10722;DHT22;5412;59.450;18.124;2022-08-19T13:13:39;33.10;99.90
10722;DHT22;5412;59.450;18.124;2022-08-19T13:16:07;33.30;99.90
10722;DHT22;5412;59.450;18.124;2022-08-19T13:18:32;33.40;99.90
10722;DHT22;5412;59.450;18.124;2022-08-19T13:21:06;33.50;99.90
10722;DHT22;5412;59.450;18.124;2022-08-19T13:23:33;33.60;99.90
10722;DHT22;5412;59.450;18.124;2022-08-19T13:26:01;33.90;99.90
10722;DHT22;5412;59.450;18.124;2022-08-19T13:28:27;34.00;99.90
10722;DHT22;5412;59.450;18.124;2022-08-19T13:31:16;34.10;99.90
10722;DHT22;5412;59.450;18.124;2022-08-19T13:34:00;34.10;99.60
10722;DHT22;5412;59.450;18.124;2022-08-19T13:36:26;34.20;99.90
10722;DHT22;5412;59.450;18.124;2022-08-19T13:38:51;34.20;99.70
10722;DHT22;5412;59.450;18.124;2022-08-19T13:41:17;34.20;99.60
10722;DHT22;5412;59.450;18.124;2022-08-19T13:43:44;34.40;98.70
10722;DHT22;5412;59.450;18.124;2022-08-19T13:46:10;34.60;98.30
10722;DHT22;5412;59.450;18.124;2022-08-19T13:48:39;34.60;98.10
10722;DHT22;5412;59.450;18.124;2022-08-19T13:51:07;34.70;98.00
10722;DHT22;5412;59.450;18.124;2022-08-19T13:53:36;34.70;97.70
10722;DHT22;5412;59.450;18.124;2022-08-19T13:56:05;35.00;97.50
10722;DHT22;5412;59.450;18.124;2022-08-19T13:58:31;35.10;96.50
10722;DHT22;5412;59.450;18.124;2022-08-19T14:00:57;35.20;95.60
10722;DHT22;5412;59.450;18.124;2022-08-19T14:03:24;35.30;95.00
10722;DHT22;5412;59.450;18.124;2022-08-19T14:05:50;35.30;94.60
10722;DHT22;5412;59.450;18.124;2022-08-19T14:08:16;35.30;94.40
10722;DHT22;5412;59.450;18.124;2022-08-19T14:10:42;35.60;94.40
10722;DHT22;5412;59.450;18.124;2022-08-19T14:13:09;35.80;92.70
10722;DHT22;5412;59.450;18.124;2022-08-19T14:15:35;35.80;92.10
10722;DHT22;5412;59.450;18.124;2022-08-19T14:18:02;36.00;91.40
10722;DHT22;5412;59.450;18.124;2022-08-19T14:20:28;35.80;91.10
10722;DHT22;5412;59.450;18.124;2022-08-19T14:22:54;36.10;91.20
10722;DHT22;5412;59.450;18.124;2022-08-19T14:25:23;36.10;91.00
10722;DHT22;5412;59.450;18.124;2022-08-19T14:27:49;36.10;91.10
10722;DHT22;5412;59.450;18.124;2022-08-19T14:30:19;36.00;90.60
10722;DHT22;5412;59.450;18.124;2022-08-19T14:32:45;36.10;90.60
10722;DHT22;5412;59.450;18.124;2022-08-19T14:35:12;36.20;90.80
10722;DHT22;5412;59.450;18.124;2022-08-19T14:37:39;36.30;89.80
10722;DHT22;5412;59.450;18.124;2022-08-19T14:40:06;36.30;89.20
10722;DHT22;5412;59.450;18.124;2022-08-19T14:42:31;36.10;90.10
10722;DHT22;5412;59.450;18.124;2022-08-19T14:44:59;35.60;89.90
10722;DHT22;5412;59.450;18.124;2022-08-19T14:47:25;35.20;90.40
10722;DHT22;5412;59.450;18.124;2022-08-19T14:49:52;35.00;90.90
10722;DHT22;5412;59.450;18.124;2022-08-19T14:52:17;34.30;91.20
10722;DHT22;5412;59.450;18.124;2022-08-19T14:54:43;34.20;92.00
10722;DHT22;5412;59.450;18.124;2022-08-19T14:57:12;34.30;91.90
10722;DHT22;5412;59.450;18.124;2022-08-19T14:59:41;34.70;91.80
10722;DHT22;5412;59.450;18.124;2022-08-19T15:02:06;34.60;91.50
10722;DHT22;5412;59.450;18.124;2022-08-19T15:04:32;34.10;92.00
10722;DHT22;5412;59.450;18.124;2022-08-19T15:06:58;33.60;92.40
10722;DHT22;5412;59.450;18.124;2022-08-19T15:09:23;33.50;93.00
10722;DHT22;5412;59.450;18.124;2022-08-19T15:11:49;33.70;93.00
10722;DHT22;5412;59.450;18.124;2022-08-19T15:14:15;33.90;93.00
10722;DHT22;5412;59.450;18.124;2022-08-19T15:16:42;34.30;92.80
10722;DHT22;5412;59.450;18.124;2022-08-19T15:19:08;34.50;92.60
10722;DHT22;5412;59.450;18.124;2022-08-19T15:21:34;35.20;92.30
10722;DHT22;5412;59.450;18.124;2022-08-19T15:24:02;35.50;92.10
10722;DHT22;5412;59.450;18.124;2022-08-19T15:26:28;35.90;91.90
10722;DHT22;5412;59.450;18.124;2022-08-19T15:29:01;36.20;91.40
10722;DHT22;5412;59.450;18.124;2022-08-19T15:31:27;36.10;90.30
10722;DHT22;5412;59.450;18.124;2022-08-19T15:33:54;36.20;90.10
10722;DHT22;5412;59.450;18.124;2022-08-19T15:36:21;35.90;90.00
10722;DHT22;5412;59.450;18.124;2022-08-19T15:38:48;35.70;90.00
10722;DHT22;5412;59.450;18.124;2022-08-19T15:41:20;35.00;90.70